Time;durP1;ratioP1;P1;durP2;ratioP2;P2;SDS_P1;SDS_P2;PMS_P1;PMS_P2;Temp;Humidity;BMP_temperature;BMP_pressure;BME280_temperature;BME280_humidity;BME280_pressure;Samples;Min_cycle;Max_cycle;Signal;HPM_P1;HPM_P2
2022/11/10 00:00:32;;;;;;;7.45;3.63;;;;;;;10.82;51.06;101565.72;5035338;28;20057;-73
2022/11/10 00:03:05;;;;;;;7.97;4.25;;;;;;;10.80;52.17;101569.94;5045370;28;20052;-73
2022/11/10 00:05:36;;;;;;;6.38;3.88;;;;;;;10.76;52.75;101559.38;5044608;28;20060;-73
2022/11/10 00:08:07;;;;;;;11.45;4.72;;;;;;;10.68;53.47;101569.44;5046101;28;20057;-72
2022/11/10 00:10:55;;;;;;;9.57;4.15;;;;;;;10.64;53.00;101576.16;5049152;28;20047;-74
2022/11/10 00:13:25;;;;;;;6.32;3.80;;;;;;;10.57;55.63;101574.16;5048028;28;20049;-77
2022/11/10 00:18:40;;;;;;;8.52;3.67;;;;;;;10.42;55.51;101578.66;5050459;28;20055;-72
2022/11/10 00:21:11;;;;;;;8.80;3.78;;;;;;;10.35;56.49;101580.09;5049722;28;20730;-72
2022/11/10 00:23:40;;;;;;;6.30;3.73;;;;;;;10.32;56.14;101579.97;5047652;28;20045;-71
2022/11/10 00:26:20;;;;;;;6.88;3.60;;;;;;;10.26;56.11;101590.00;5048267;28;20128;-75
2022/11/10 00:28:49;;;;;;;6.82;3.63;;;;;;;10.22;57.22;101593.28;5046245;28;20045;-71
2022/11/10 00:31:18;;;;;;;7.30;3.53;;;;;;;10.13;56.96;101593.75;5047339;28;20059;-70
2022/11/10 00:33:46;;;;;;;7.18;3.30;;;;;;;10.04;57.67;101603.69;5042082;28;20052;-70
2022/11/10 00:36:17;;;;;;;8.30;3.95;;;;;;;9.95;58.43;101600.69;5043910;28;20045;-72
2022/11/10 00:38:45;;;;;;;6.40;3.65;;;;;;;9.90;59.18;101609.94;5043282;28;20057;-70
2022/11/10 00:41:14;;;;;;;7.88;3.20;;;;;;;9.77;60.26;101603.31;5045886;28;20541;-71
2022/11/10 00:43:43;;;;;;;5.90;2.95;;;;;;;9.74;59.99;101608.34;5043728;28;20607;-72
2022/11/10 00:46:11;;;;;;;4.32;3.00;;;;;;;9.64;59.99;101607.00;5043169;28;20053;-73
2022/11/10 00:48:40;;;;;;;8.57;3.88;;;;;;;9.58;60.71;101617.09;5042024;28;20056;-72
2022/11/10 00:51:10;;;;;;;5.90;3.45;;;;;;;9.43;61.93;101605.19;5041889;28;20044;-72
2022/11/10 00:53:40;;;;;;;7.50;3.28;;;;;;;9.42;62.41;101616.34;5045269;28;20056;-73
2022/11/10 00:56:09;;;;;;;5.60;2.92;;;;;;;9.35;63.18;101613.41;5045297;28;20202;-73
2022/11/10 00:58:41;;;;;;;11.02;3.33;;;;;;;9.30;63.25;101614.84;5043118;28;20057;-72
2022/11/10 01:01:16;;;;;;;7.57;3.75;;;;;;;9.23;64.40;101624.00;5044223;28;20171;-73
2022/11/10 01:03:45;;;;;;;6.20;3.40;;;;;;;9.13;65.06;101619.22;5043010;28;20051;-72
2022/11/10 01:06:15;;;;;;;4.78;3.03;;;;;;;9.06;66.18;101632.63;5045476;28;20060;-72
2022/11/10 01:08:46;;;;;;;4.97;2.75;;;;;;;8.94;67.35;101631.22;5043336;28;20045;-73
2022/11/10 01:11:16;;;;;;;6.25;2.78;;;;;;;8.89;67.85;101632.69;5046625;28;21002;-72
2022/11/10 01:13:45;;;;;;;6.18;2.88;;;;;;;8.85;68.58;101632.44;5043775;28;20077;-72
2022/11/10 01:16:18;;;;;;;9.65;3.58;;;;;;;8.80;67.65;101632.22;5045789;28;20044;-75
2022/11/10 01:18:50;;;;;;;6.05;3.63;;;;;;;8.70;67.67;101628.25;5050136;28;20063;-73
2022/11/10 01:21:19;;;;;;;8.23;3.55;;;;;;;8.67;67.09;101634.97;5049868;28;20055;-74
2022/11/10 01:23:50;;;;;;;7.15;3.17;;;;;;;8.63;68.00;101638.19;5038940;28;20048;-72
2022/11/10 01:26:19;;;;;;;7.22;4.05;;;;;;;8.56;68.10;101647.31;5040786;28;20044;-74
2022/11/10 01:28:47;;;;;;;3.85;2.80;;;;;;;8.51;68.12;101652.22;5046572;28;20045;-72
2022/11/10 01:31:20;;;;;;;6.25;3.55;;;;;;;8.45;68.86;101653.59;5048915;28;20060;-73
2022/11/10 01:33:48;;;;;;;;;;;;;;;8.39;69.47;101662.75;5040611;28;20045;-72
2022/11/10 01:36:17;;;;;;;7.80;4.32;;;;;;;8.36;69.99;101666.84;5041667;28;19935;-71
2022/11/10 01:38:45;;;;;;;14.43;3.78;;;;;;;8.29;70.38;101663.09;5048222;28;20500;-71
2022/11/10 01:41:25;;;;;;;6.85;4.47;;;;;;;8.29;71.04;101672.50;5052228;28;20048;-71
2022/11/10 01:43:54;;;;;;;12.07;5.13;;;;;;;8.25;72.70;101665.44;5048964;28;20041;-70
2022/11/10 01:46:23;;;;;;;12.07;5.38;;;;;;;8.22;72.95;101670.41;5040841;28;20269;-71
2022/11/10 01:49:01;;;;;;;10.13;4.68;;;;;;;8.17;72.75;101668.44;5049742;28;20052;-71
2022/11/10 01:51:38;;;;;;;10.02;4.63;;;;;;;8.08;73.74;101677.41;5045994;28;20052;-71
2022/11/10 01:54:10;;;;;;;12.15;4.97;;;;;;;8.05;73.86;101685.84;5051511;28;20487;-71
2022/11/10 01:56:44;;;;;;;9.25;4.97;;;;;;;8.00;74.24;101686.41;5051549;28;20048;-71
2022/11/10 01:59:18;;;;;;;12.43;5.00;;;;;;;7.94;75.62;101687.84;5045011;28;20435;-71
2022/11/10 02:01:50;;;;;;;10.13;4.45;;;;;;;7.92;74.50;101697.16;5052021;28;20067;-71
2022/11/10 02:04:22;;;;;;;11.75;5.53;;;;;;;7.88;75.14;101696.91;5042729;28;20053;-71
2022/11/10 02:06:51;;;;;;;;;;;;;;;7.84;74.69;101702.72;5047223;28;20076;-71
2022/11/10 02:09:20;;;;;;;11.27;4.47;;;;;;;7.79;73.88;101705.03;5047315;28;20493;-71
2022/11/10 02:11:54;;;;;;;20.98;6.15;;;;;;;7.74;74.79;101702.22;5046488;28;20063;-71
2022/11/10 02:14:26;;;;;;;13.73;6.88;;;;;;;7.71;74.53;101708.88;5047999;28;20041;-71
2022/11/10 02:16:54;;;;;;;14.13;6.70;;;;;;;7.69;74.59;101716.50;5050966;28;20080;-72
2022/11/10 02:19:25;;;;;;;13.95;6.82;;;;;;;7.63;74.97;101715.25;5045518;28;20053;-71
2022/11/10 02:21:55;;;;;;;19.65;7.28;;;;;;;7.60;75.66;101718.53;5053920;28;20049;-71
2022/11/10 02:24:27;;;;;;;13.82;6.93;;;;;;;7.58;75.43;101729.56;5046243;28;20053;-72
2022/11/10 02:26:58;;;;;;;21.30;7.57;;;;;;;7.54;74.81;101728.53;5051459;28;20044;-71
2022/11/10 02:29:27;;;;;;;16.30;6.72;;;;;;;7.49;75.20;101740.22;5054087;28;20044;-71
2022/11/10 02:31:56;;;;;;;14.07;6.20;;;;;;;7.44;75.71;101749.38;5053551;28;20053;-71
2022/11/10 02:34:24;;;;;;;13.93;6.97;;;;;;;7.41;76.23;101751.78;5047986;28;20056;-73
2022/11/10 02:36:55;;;;;;;9.82;5.57;;;;;;;7.38;76.65;101754.19;5045182;28;20045;-71
2022/11/10 02:39:23;;;;;;;10.48;5.53;;;;;;;7.37;77.33;101762.69;5043967;28;20078;-71
2022/11/10 02:41:52;;;;;;;12.52;6.35;;;;;;;7.34;78.56;101760.84;5049262;28;20482;-71
2022/11/10 02:44:21;;;;;;;11.50;5.95;;;;;;;7.30;79.21;101758.88;5045565;28;20508;-71
2022/11/10 02:46:49;;;;;;;16.38;6.53;;;;;;;7.33;79.97;101767.69;5052217;28;20051;-71
2022/11/10 02:49:18;;;;;;;12.60;6.25;;;;;;;7.32;80.93;101772.72;5048968;28;20069;-72
2022/11/10 02:51:47;;;;;;;11.85;6.60;;;;;;;7.29;80.96;101777.69;5052081;28;20145;-72
2022/11/10 02:54:17;;;;;;;12.77;6.43;;;;;;;7.27;80.55;101795.63;5046057;28;20037;-72
2022/11/10 02:56:46;;;;;;;14.45;6.68;;;;;;;7.24;80.88;101794.53;5046727;28;20486;-72
2022/11/10 02:59:14;;;;;;;13.98;6.28;;;;;;;7.22;81.93;101803.88;5043283;28;20060;-71
2022/11/10 03:01:43;;;;;;;12.73;5.38;;;;;;;7.18;83.00;101807.06;5032528;28;20059;-71
2022/11/10 03:04:12;;;;;;;13.32;6.00;;;;;;;7.11;84.04;101810.94;5020189;28;20041;-71
2022/11/10 03:06:41;;;;;;;9.00;4.65;;;;;;;7.07;86.87;101809.88;5028089;28;20049;-72
2022/11/10 03:09:09;;;;;;;7.68;4.43;;;;;;;7.09;89.28;101817.69;5030187;28;20700;-72
2022/11/10 03:11:40;;;;;;;9.43;4.70;;;;;;;7.11;89.54;101823.81;5028999;28;20045;-72
2022/11/10 03:14:08;;;;;;;8.20;4.65;;;;;;;7.11;90.78;101823.81;5031048;28;20503;-73
2022/11/10 03:16:37;;;;;;;7.32;4.70;;;;;;;7.04;91.41;101825.13;5028139;28;21185;-72
2022/11/10 03:19:06;;;;;;;7.72;4.65;;;;;;;6.97;90.62;101834.97;5030269;28;20111;-72
2022/11/10 03:21:34;;;;;;;13.27;4.88;;;;;;;6.88;90.92;101823.31;5030134;28;20049;-73
2022/11/10 03:24:05;;;;;;;10.85;5.13;;;;;;;6.91;90.84;101836.34;5026473;28;20046;-73
2022/11/10 03:26:34;;;;;;;16.17;5.45;;;;;;;6.95;91.76;101826.25;5026636;28;20114;-73
2022/11/10 03:29:04;;;;;;;11.75;5.07;;;;;;;7.01;90.94;101826.63;5026566;28;20060;-72
2022/11/10 03:31:33;;;;;;;11.93;4.80;;;;;;;7.05;90.73;101833.72;5026170;28;20041;-73
2022/11/10 03:34:05;;;;;;;13.05;5.28;;;;;;;7.08;92.00;101839.09;5024229;28;20089;-72
2022/11/10 03:36:33;;;;;;;11.13;5.17;;;;;;;7.08;91.80;101829.69;5029785;28;20049;-72
2022/11/10 03:39:02;;;;;;;9.93;5.05;;;;;;;7.08;91.01;101834.81;5027054;28;20055;-72
2022/11/10 03:41:31;;;;;;;10.90;6.15;;;;;;;7.08;90.10;101833.94;5028601;28;20045;-73
2022/11/10 03:43:59;;;;;;;13.73;6.53;;;;;;;7.06;89.57;101836.41;5028063;28;20055;-75
2022/11/10 03:46:33;;;;;;;11.00;6.13;;;;;;;7.02;88.18;101837.00;5026584;28;20473;-74
2022/11/10 03:49:02;;;;;;;13.27;6.18;;;;;;;6.97;89.18;101845.25;5028431;28;20049;-73
2022/11/10 03:51:31;;;;;;;14.60;7.13;;;;;;;6.92;89.86;101852.69;5031495;28;20041;-74
2022/11/10 03:53:59;;;;;;;11.82;5.55;;;;;;;6.88;89.89;101856.75;5026914;28;20129;-74
2022/11/10 03:56:28;;;;;;;9.57;5.93;;;;;;;6.85;89.96;101861.72;5022465;28;20045;-75
2022/11/10 03:59:01;;;;;;;14.50;6.70;;;;;;;6.82;89.49;101869.22;5032606;28;20088;-73
2022/11/10 04:01:31;;;;;;;9.77;5.88;;;;;;;6.80;88.74;101864.78;5038186;28;20104;-74
2022/11/10 04:04:00;;;;;;;17.50;6.95;;;;;;;6.77;89.19;101878.34;5050072;28;20057;-75
2022/11/10 04:09:14;;;;;;;18.60;8.32;;;;;;;6.67;87.93;101878.56;5051801;28;20087;-72
2022/11/10 04:17:15;;;;;;;13.45;6.50;;;;;;;6.54;89.11;101878.56;5058752;28;20122;-74
2022/11/10 04:19:46;;;;;;;17.90;7.20;;;;;;;6.46;89.24;101891.84;5043301;28;20141;-73
2022/11/10 04:23:25;;;;;;;15.05;7.18;;;;;;;6.38;89.82;101893.00;5054356;28;20513;-72
2022/11/10 04:25:03;;;;;;;14.68;7.47;;;;;;;6.32;90.85;101897.75;5041061;28;20060;-73
2022/11/10 04:27:32;;;;;;;17.63;6.85;;;;;;;6.18;90.71;101884.00;5042042;28;20051;-73
2022/11/10 04:30:00;;;;;;;14.45;6.82;;;;;;;6.19;91.43;101902.91;5043895;28;20049;-73
2022/11/10 04:32:34;;;;;;;10.32;5.90;;;;;;;6.13;93.02;101899.91;5047421;28;20048;-75
2022/11/10 04:35:03;;;;;;;26.63;7.90;;;;;;;6.10;93.49;101898.03;5041903;28;20048;-75
2022/11/10 04:37:32;;;;;;;12.07;6.47;;;;;;;6.08;92.85;101897.03;5043248;28;20052;-74
2022/11/10 04:40:00;;;;;;;15.55;7.13;;;;;;;6.05;92.22;101902.00;5044034;28;20059;-74
2022/11/10 04:42:29;;;;;;;18.40;7.28;;;;;;;6.01;91.37;101902.56;5057126;28;20052;-74
2022/11/10 04:45:00;;;;;;;16.13;8.75;;;;;;;5.95;90.87;101902.16;5044090;28;20332;-73
2022/11/10 04:47:30;;;;;;;15.80;7.53;;;;;;;5.88;90.56;101903.38;5045292;28;20099;-74
2022/11/10 04:49:59;;;;;;;13.88;8.30;;;;;;;5.85;89.67;101916.03;5049722;28;20049;-73
2022/11/10 04:52:28;;;;;;;12.30;6.68;;;;;;;5.78;90.07;101911.28;5051681;28;20557;-73
2022/11/10 04:54:59;;;;;;;14.35;8.02;;;;;;;5.72;90.41;101916.00;5047595;28;20052;-73
2022/11/10 04:57:28;;;;;;;14.15;7.47;;;;;;;5.66;90.19;101922.50;5043499;28;20051;-74
2022/11/10 04:59:56;;;;;;;17.40;6.22;;;;;;;5.61;91.01;101921.31;5040842;28;20085;-75
2022/11/10 05:02:25;;;;;;;13.85;6.80;;;;;;;5.55;90.55;101923.44;5053816;28;20053;-75
2022/11/10 05:04:55;;;;;;;15.90;6.47;;;;;;;5.49;90.99;101920.44;5047513;28;20051;-74
2022/11/10 05:07:24;;;;;;;14.98;6.22;;;;;;;5.44;90.75;101924.38;5044793;28;20053;-76
2022/11/10 05:09:53;;;;;;;11.55;6.70;;;;;;;5.38;91.12;101927.44;5044199;28;20053;-75
2022/11/10 05:12:21;;;;;;;15.20;7.85;;;;;;;5.29;91.42;101921.66;5043140;28;20044;-76
2022/11/10 05:14:50;;;;;;;23.25;8.38;;;;;;;5.28;91.23;101931.81;5044434;28;20053;-76
2022/11/10 05:17:19;;;;;;;13.52;6.47;;;;;;;5.22;91.63;101938.31;5041345;28;20053;-73
2022/11/10 05:19:47;;;;;;;14.25;7.30;;;;;;;5.17;91.94;101939.63;5044081;28;20048;-75
2022/11/10 05:22:18;;;;;;;15.77;7.72;;;;;;;5.12;92.29;101933.31;5046495;28;20055;-75
2022/11/10 05:24:46;;;;;;;14.55;7.30;;;;;;;5.09;93.28;101945.91;5041792;28;20102;-74
2022/11/10 05:27:15;;;;;;;22.48;7.57;;;;;;;5.05;93.66;101943.91;5042560;28;20057;-73
2022/11/10 05:29:44;;;;;;;16.10;7.78;;;;;;;5.02;95.32;101943.72;5040447;28;20085;-74
2022/11/10 05:32:12;;;;;;;15.63;7.00;;;;;;;4.98;95.24;101946.84;5043167;28;20183;-74
2022/11/10 05:34:41;;;;;;;14.70;7.03;;;;;;;4.90;96.02;101959.13;5044331;28;20068;-74
2022/11/10 05:37:10;;;;;;;19.48;7.13;;;;;;;4.84;96.71;101953.53;5042111;28;20053;-73
2022/11/10 05:39:40;;;;;;;15.25;7.07;;;;;;;4.83;96.35;101947.53;5042562;28;20785;-73
2022/11/10 05:42:09;;;;;;;19.83;7.93;;;;;;;4.82;95.16;101958.56;5043852;28;20055;-74
2022/11/10 05:44:37;;;;;;;13.55;7.07;;;;;;;4.81;94.65;101959.34;5054355;28;20131;-74
2022/11/10 05:47:07;;;;;;;13.20;7.00;;;;;;;4.76;94.31;101968.34;5039907;28;20136;-74
2022/11/10 05:49:36;;;;;;;16.10;5.88;;;;;;;4.77;93.67;101976.97;5053427;28;20073;-74
2022/11/10 05:52:05;;;;;;;20.20;7.25;;;;;;;4.74;94.06;101980.19;5054580;28;20048;-74
2022/11/10 05:54:33;;;;;;;15.38;7.00;;;;;;;4.70;94.32;101970.50;5048411;28;20068;-74
2022/11/10 05:57:04;;;;;;;15.73;7.40;;;;;;;4.69;95.01;101978.06;5052363;28;20128;-74
2022/11/10 05:59:32;;;;;;;13.35;6.38;;;;;;;4.66;94.49;101976.19;5041583;28;20045;-73
2022/11/10 06:02:01;;;;;;;15.25;6.50;;;;;;;4.62;93.24;101974.16;5046292;28;20132;-74
2022/11/10 06:04:30;;;;;;;14.15;6.50;;;;;;;4.51;95.24;101977.59;5039966;28;20055;-73
2022/11/10 06:06:58;;;;;;;14.05;6.38;;;;;;;4.48;95.99;101977.41;5041974;28;20082;-74
2022/11/10 06:09:29;;;;;;;15.73;7.15;;;;;;;4.47;95.74;101975.63;5046096;28;20048;-73
2022/11/10 06:11:57;;;;;;;11.95;6.97;;;;;;;4.38;96.92;101973.28;5044688;28;20450;-73
2022/11/10 06:14:30;;;;;;;14.52;7.50;;;;;;;4.28;98.37;101971.69;5047081;28;20076;-74
2022/11/10 06:16:59;;;;;;;14.73;6.70;;;;;;;4.27;97.51;101980.16;5043537;28;20675;-74
2022/11/10 06:19:27;;;;;;;12.07;6.70;;;;;;;4.25;97.43;101975.69;5037019;28;20068;-74
2022/11/10 06:21:56;;;;;;;17.48;7.72;;;;;;;4.26;97.41;101977.47;5049031;28;20052;-73
2022/11/10 06:24:25;;;;;;;19.58;8.35;;;;;;;4.23;95.31;101983.25;5044121;28;20041;-73
2022/11/10 06:26:53;;;;;;;11.40;6.03;;;;;;;4.21;95.33;101987.38;5049447;28;20052;-73
2022/11/10 06:29:22;;;;;;;21.83;6.75;;;;;;;4.18;94.90;101987.16;5046251;28;20053;-73
2022/11/10 06:31:52;;;;;;;17.65;7.50;;;;;;;4.16;94.98;101993.81;5048007;28;20686;-73
2022/11/10 06:34:21;;;;;;;14.80;6.82;;;;;;;4.12;94.26;101997.84;5047073;28;20049;-73
2022/11/10 06:36:50;;;;;;;17.15;6.43;;;;;;;4.06;94.02;101997.38;5052192;28;20048;-74
2022/11/10 06:39:18;;;;;;;15.38;7.50;;;;;;;3.99;93.86;102001.13;5051428;28;20071;-73
2022/11/10 06:41:47;;;;;;;13.02;6.80;;;;;;;3.97;94.73;102001.81;5052969;28;20086;-73
2022/11/10 06:44:15;;;;;;;21.25;8.02;;;;;;;3.89;93.53;102006.31;5051591;28;20137;-74
2022/11/10 06:46:44;;;;;;;13.68;6.60;;;;;;;3.83;95.55;102012.66;5050889;28;20499;-74
2022/11/10 06:49:14;;;;;;;15.98;7.20;;;;;;;3.81;95.24;102015.09;5051053;28;20052;-73
2022/11/10 06:51:43;;;;;;;15.68;7.85;;;;;;;3.79;95.68;102021.75;5055696;28;20462;-73
2022/11/10 06:54:19;;;;;;;14.85;6.93;;;;;;;3.78;96.27;102017.44;5050684;28;20374;-73
2022/11/10 06:56:48;;;;;;;14.48;6.28;;;;;;;3.77;95.14;102019.06;5045876;28;20140;-73
2022/11/10 06:59:17;;;;;;;16.05;8.02;;;;;;;3.76;94.75;102026.66;5050762;28;20045;-74
2022/11/10 07:01:46;;;;;;;17.30;7.47;;;;;;;3.73;94.35;102023.84;5050143;28;20509;-74
2022/11/10 07:04:21;;;;;;;18.38;7.35;;;;;;;3.69;94.54;102024.41;5050843;28;20288;-73
2022/11/10 07:06:49;;;;;;;18.38;8.82;;;;;;;3.67;94.75;102037.06;5047580;28;20135;-73
2022/11/10 07:09:18;;;;;;;13.02;6.10;;;;;;;3.64;95.88;102028.25;5050405;28;20051;-74
2022/11/10 07:11:47;;;;;;;13.90;7.82;;;;;;;3.60;94.46;102034.81;5057424;28;20047;-74
2022/11/10 07:14:15;;;;;;;14.50;6.93;;;;;;;3.50;94.73;102038.28;5044300;28;20045;-74
2022/11/10 07:16:44;;;;;;;14.88;7.20;;;;;;;3.45;96.41;102038.72;5045576;28;20045;-74
2022/11/10 07:19:13;;;;;;;16.85;7.57;;;;;;;3.42;96.26;102049.63;5046170;28;20061;-73
2022/11/10 07:21:44;;;;;;;13.45;6.63;;;;;;;3.41;96.40;102052.03;5046765;28;20132;-73
2022/11/10 07:24:13;;;;;;;16.50;7.68;;;;;;;3.40;96.88;102051.16;5048205;28;20049;-73
2022/11/10 07:26:42;;;;;;;16.25;6.85;;;;;;;3.37;94.79;102061.16;5047949;28;20060;-72
2022/11/10 07:29:10;;;;;;;16.83;7.15;;;;;;;3.34;94.25;102060.88;5047193;28;20037;-73
2022/11/10 07:31:39;;;;;;;18.13;7.30;;;;;;;3.31;95.49;102058.09;5047933;28;20048;-73
2022/11/10 07:34:08;;;;;;;13.77;7.20;;;;;;;3.27;94.30;102068.84;5044891;28;20044;-73
2022/11/10 07:36:36;;;;;;;14.45;7.00;;;;;;;3.17;95.18;102068.91;5048053;28;20049;-73
2022/11/10 07:39:16;;;;;;;19.15;7.80;;;;;;;3.13;96.45;102066.06;5043766;28;20052;-73
2022/11/10 07:41:45;;;;;;;12.75;5.85;;;;;;;3.09;97.38;102055.47;5049717;28;20045;-73
2022/11/10 07:44:13;;;;;;;12.85;6.53;;;;;;;3.11;95.53;102064.16;5054078;28;20053;-74
2022/11/10 07:46:42;;;;;;;16.98;7.63;;;;;;;3.07;96.14;102077.47;5054261;28;20560;-74
2022/11/10 07:49:11;;;;;;;16.27;6.78;;;;;;;3.01;97.34;102077.00;5046769;28;20040;-73
2022/11/10 07:51:39;;;;;;;19.17;6.57;;;;;;;3.00;96.35;102076.13;5052962;28;20065;-73
2022/11/10 07:54:10;;;;;;;12.07;5.90;;;;;;;2.97;96.07;102074.97;5049520;28;20041;-73
2022/11/10 07:56:38;;;;;;;10.60;5.85;;;;;;;2.94;95.96;102083.28;5050746;28;20702;-73
2022/11/10 07:59:07;;;;;;;16.15;5.60;;;;;;;2.90;95.91;102087.22;5048865;28;20049;-73
2022/11/10 08:01:36;;;;;;;11.02;5.25;;;;;;;2.90;96.56;102091.47;5050616;28;20055;-73
2022/11/10 08:04:05;;;;;;;9.57;5.20;;;;;;;2.88;95.81;102087.88;5046534;28;20829;-73
2022/11/10 08:06:35;;;;;;;11.68;5.93;;;;;;;2.85;96.75;102093.63;5042307;28;20051;-74
2022/11/10 08:09:04;;;;;;;9.30;4.68;;;;;;;2.85;97.34;102092.75;5043611;28;20605;-73
2022/11/10 08:11:41;;;;;;;14.55;6.22;;;;;;;2.84;97.35;102096.06;5045875;28;20478;-72
2022/11/10 08:14:10;;;;;;;9.43;5.05;;;;;;;2.82;97.85;102095.03;5044306;28;20427;-73
2022/11/10 08:16:41;;;;;;;9.90;4.85;;;;;;;2.81;97.50;102088.16;5044814;28;20064;-72
2022/11/10 08:19:10;;;;;;;13.18;5.05;;;;;;;2.76;96.50;102103.09;5043518;28;20057;-73
2022/11/10 08:21:38;;;;;;;12.32;4.90;;;;;;;2.66;97.79;102095.47;5040296;28;20422;-73
2022/11/10 08:24:08;;;;;;;11.52;6.03;;;;;;;2.65;98.05;102099.66;5046538;28;20060;-73
2022/11/10 08:26:38;;;;;;;11.25;5.18;;;;;;;2.63;98.52;102101.19;5046658;28;20067;-72
2022/11/10 08:29:07;;;;;;;15.52;6.30;;;;;;;2.62;98.83;102099.41;5044365;28;20037;-73
2022/11/10 08:31:37;;;;;;;15.18;5.57;;;;;;;2.60;98.31;102100.94;5043839;28;20063;-72
2022/11/10 08:34:05;;;;;;;10.15;5.20;;;;;;;2.61;97.99;102097.63;5046392;28;20044;-73
2022/11/10 08:36:36;;;;;;;9.98;4.65;;;;;;;2.60;97.44;102105.16;5041147;28;20049;-73
2022/11/10 08:39:05;;;;;;;10.15;5.53;;;;;;;2.50;96.15;102103.50;5053702;28;20124;-74
2022/11/10 08:41:33;;;;;;;11.55;5.00;;;;;;;2.45;97.47;102115.91;5046306;28;20075;-73
2022/11/10 08:44:04;;;;;;;11.70;4.50;;;;;;;2.43;97.26;102111.44;5045263;28;20051;-74
2022/11/10 08:46:32;;;;;;;11.80;4.82;;;;;;;2.39;96.93;102109.38;5044073;28;20084;-74
2022/11/10 08:49:01;;;;;;;10.18;4.78;;;;;;;2.38;97.63;102107.56;5048424;28;20525;-73
2022/11/10 08:51:30;;;;;;;11.63;5.20;;;;;;;2.38;96.29;102103.34;5048352;28;20486;-72
2022/11/10 08:53:58;;;;;;;10.23;4.50;;;;;;;2.38;97.08;102113.56;5051641;28;20045;-73
2022/11/10 08:56:30;;;;;;;12.05;5.13;;;;;;;2.36;96.01;102115.13;5047757;28;20071;-73
2022/11/10 08:58:58;;;;;;;8.60;4.68;;;;;;;2.34;95.53;102105.53;5048641;28;20198;-73
2022/11/10 09:01:29;;;;;;;11.60;5.13;;;;;;;2.28;96.46;102109.34;5047061;28;20565;-73
2022/11/10 09:03:57;;;;;;;11.10;5.05;;;;;;;2.33;96.81;102119.06;5045025;28;20045;-73
2022/11/10 09:06:26;;;;;;;9.20;4.28;;;;;;;2.28;96.10;102117.03;5044755;28;20059;-73
2022/11/10 09:08:57;;;;;;;8.73;4.55;;;;;;;2.26;96.31;102123.66;5041854;28;20041;-73
2022/11/10 09:11:26;;;;;;;9.85;4.25;;;;;;;2.24;96.81;102127.72;5047233;28;20103;-73
2022/11/10 09:13:55;;;;;;;10.20;4.72;;;;;;;2.22;98.27;102119.06;5044367;28;20498;-73
2022/11/10 09:16:23;;;;;;;8.10;4.28;;;;;;;2.23;98.52;102131.06;5046792;28;20045;-73
2022/11/10 09:18:54;;;;;;;9.20;4.35;;;;;;;2.17;97.82;102127.97;5045628;28;20490;-73
2022/11/10 09:21:22;;;;;;;11.40;4.70;;;;;;;2.15;97.84;102136.28;5048469;28;20118;-73
2022/11/10 09:23:51;;;;;;;7.20;3.88;;;;;;;2.18;99.33;102136.56;5044368;28;20515;-74
2022/11/10 09:26:20;;;;;;;9.70;4.43;;;;;;;2.18;100.00;102134.91;5049494;28;20049;-74
2022/11/10 09:28:53;;;;;;;8.10;4.90;;;;;;;2.20;100.00;102132.44;5041374;28;20049;-74
2022/11/10 09:31:21;;;;;;;9.52;5.18;;;;;;;2.16;100.00;102128.75;5037505;28;20041;-74
2022/11/10 09:33:50;;;;;;;11.77;5.35;;;;;;;2.18;100.00;102128.91;5045773;28;20057;-73
2022/11/10 09:36:20;;;;;;;13.05;5.78;;;;;;;2.18;100.00;102132.34;5046320;28;20076;-73
2022/11/10 09:38:49;;;;;;;12.10;5.68;;;;;;;2.19;99.94;102136.66;5045540;28;20055;-74
2022/11/10 09:41:19;;;;;;;6.40;4.05;;;;;;;2.18;99.28;102140.00;5050815;28;20045;-72
2022/11/10 09:43:56;;;;;;;10.98;4.60;;;;;;;2.15;98.90;102139.72;5045442;28;20779;-74
2022/11/10 09:46:33;;;;;;;11.63;5.03;;;;;;;2.10;99.44;102146.09;5046097;28;20064;-73
2022/11/10 09:49:05;;;;;;;11.95;4.93;;;;;;;2.12;100.00;102141.13;5043449;28;20069;-73
2022/11/10 09:51:40;;;;;;;14.18;4.35;;;;;;;2.13;100.00;102146.38;5042571;28;20034;-73
2022/11/10 09:54:23;;;;;;;15.48;4.75;;;;;;;2.17;100.00;102150.06;5046111;28;20049;-73
2022/11/10 09:56:55;;;;;;;11.32;4.25;;;;;;;2.19;100.00;102146.88;5046517;28;20582;-73
2022/11/10 09:59:28;;;;;;;9.85;5.10;;;;;;;2.27;100.00;102151.00;5049876;28;20095;-73
2022/11/10 10:02:05;;;;;;;10.07;5.38;;;;;;;2.33;100.00;102144.63;5049920;28;20784;-73
2022/11/10 10:04:56;;;;;;;8.90;4.78;;;;;;;2.37;100.00;102147.56;5046026;28;20569;-74
2022/11/10 10:07:31;;;;;;;8.88;5.22;;;;;;;2.43;100.00;102136.97;5044619;28;20048;-74
2022/11/10 10:10:05;;;;;;;9.45;4.57;;;;;;;2.45;100.00;102135.41;5047748;28;20114;-73
2022/11/10 10:13:00;;;;;;;14.13;6.18;;;;;;;2.40;100.00;102117.16;5045947;28;20052;-74
2022/11/10 10:15:41;;;;;;;16.55;5.85;;;;;;;2.35;100.00;102122.66;5048803;28;20065;-74
2022/11/10 10:18:27;;;;;;;18.33;6.25;;;;;;;2.34;100.00;102131.06;5050102;28;20049;-73
2022/11/10 10:21:26;;;;;;;16.92;7.22;;;;;;;2.37;100.00;102131.34;5046438;28;20041;-74
2022/11/10 10:24:01;;;;;;;9.75;5.15;;;;;;;2.42;100.00;102136.06;5048563;28;20106;-74
2022/11/10 10:26:33;;;;;;;12.27;5.38;;;;;;;2.45;100.00;102125.19;5049522;28;20132;-74
2022/11/10 10:29:08;;;;;;;11.77;4.30;;;;;;;2.49;100.00;102117.94;5046221;28;20048;-73
2022/11/10 10:31:42;;;;;;;13.73;5.60;;;;;;;2.56;100.00;102123.56;5046304;28;20052;-73
2022/11/10 10:34:16;;;;;;;11.35;5.30;;;;;;;2.54;100.00;102123.41;5050174;28;20048;-73
2022/11/10 10:36:47;;;;;;;14.32;4.97;;;;;;;2.64;100.00;102133.66;5049374;28;20049;-72
2022/11/10 10:39:23;;;;;;;9.68;4.20;;;;;;;2.68;100.00;102137.34;5049861;28;20159;-73
2022/11/10 10:41:54;;;;;;;6.93;4.30;;;;;;;2.72;100.00;102137.72;5051160;28;20041;-74
2022/11/10 10:44:23;;;;;;;11.43;4.05;;;;;;;2.77;100.00;102138.09;5047920;28;20041;-74
2022/11/10 10:46:59;;;;;;;12.57;5.15;;;;;;;2.76;100.00;102130.34;5044795;28;20049;-74
2022/11/10 10:49:29;;;;;;;11.05;5.57;;;;;;;2.77;100.00;102138.09;5045107;28;20056;-72
2022/11/10 10:52:06;;;;;;;11.82;5.43;;;;;;;2.69;100.00;102145.16;5049568;28;20041;-73
2022/11/10 10:54:37;;;;;;;10.95;5.35;;;;;;;2.70;100.00;102157.19;5048405;28;20045;-72
2022/11/10 10:57:20;;;;;;;11.48;5.45;;;;;;;2.73;100.00;102166.75;5047452;28;20068;-73
2022/11/10 10:59:54;;;;;;;13.43;5.97;;;;;;;2.78;100.00;102154.38;5051688;28;20060;-72
2022/11/10 11:02:27;;;;;;;11.77;4.78;;;;;;;2.75;100.00;102151.53;5044363;28;20060;-73
2022/11/10 11:05:15;;;;;;;6.78;4.47;;;;;;;2.70;100.00;102162.28;5033241;28;20037;-73
2022/11/10 11:07:54;;;;;;;12.63;5.47;;;;;;;2.77;100.00;102190.91;5029634;28;20132;-73
2022/11/10 11:10:33;;;;;;;9.27;4.05;;;;;;;2.78;100.00;102192.72;5030959;28;20131;-74
2022/11/10 11:13:15;;;;;;;7.15;3.85;;;;;;;2.78;100.00;102170.59;5030428;28;20053;-73
2022/11/10 11:15:56;;;;;;;10.98;4.32;;;;;;;2.75;100.00;102175.47;5031935;28;20052;-73
2022/11/10 11:18:27;;;;;;;6.78;3.60;;;;;;;2.76;100.00;102182.34;5024530;28;20041;-73
2022/11/10 11:21:06;;;;;;;7.50;3.53;;;;;;;2.82;100.00;102174.28;5028290;28;20069;-74
2022/11/10 11:23:46;;;;;;;7.88;3.97;;;;;;;2.87;100.00;102180.69;5027489;28;20564;-73
2022/11/10 11:26:23;;;;;;;9.80;3.78;;;;;;;2.90;100.00;102178.38;5031606;28;20511;-74
2022/11/10 11:29:03;;;;;;;6.47;3.40;;;;;;;2.94;100.00;102183.88;5030886;28;20049;-74
2022/11/10 11:31:41;;;;;;;9.35;4.22;;;;;;;2.99;100.00;102178.25;5030414;28;20049;-73
2022/11/10 11:34:18;;;;;;;6.78;4.00;;;;;;;3.00;100.00;102175.84;5027896;28;20053;-74
2022/11/10 11:36:56;;;;;;;6.53;3.85;;;;;;;3.04;100.00;102176.97;5029992;28;20042;-74
2022/11/10 11:39:41;;;;;;;7.97;4.07;;;;;;;3.10;100.00;102187.72;5034038;28;20380;-75
2022/11/10 11:42:25;;;;;;;10.68;4.20;;;;;;;3.08;100.00;102167.13;5031868;28;20040;-73
2022/11/10 11:45:08;;;;;;;8.50;3.60;;;;;;;3.06;100.00;102171.19;5034736;28;20076;-74
2022/11/10 11:47:51;;;;;;;6.30;3.63;;;;;;;3.05;100.00;102166.88;5036572;28;20529;-74
2022/11/10 11:50:25;;;;;;;;;;;;;;;3.09;100.00;102166.38;5027425;28;20045;-74
2022/11/10 11:53:05;;;;;;;8.30;4.00;;;;;;;3.09;100.00;102166.38;5026307;28;20483;-74
2022/11/10 11:55:50;;;;;;;8.68;4.15;;;;;;;3.03;100.00;102160.72;5027521;28;21073;-74